Forside
METAR-TAF:

METAR-TAF

Lufthavne :

St. Clair County International Airport

Port Huron, Michigan, USA

Breddekreds: 42-55N, længdekreds: 082-32W, højde: 198 m

Aktuelle vejr

Denne rapport blev lavet for 34 minutter siden, kl. 02:35 UTC
Vind 3 kt fra sydsydvest
Temperatur 23°C
Fugtighed 73%
Tryk 1014 hPa
Sigt: 16.1 km
Spredte skyer i en højde af 6500 ft

METAR: KPHN 250235Z AUTO 21003KT 10SM SCT065 23/18 A2994 RMK AO2

Tid: 23:09 (03:09 UTC)


TAF: fraværende

Vejrobservationer og prognoser fra mere end 4000 lufthavne (METAR og TAF).

De gule og røde prikker repræsenterer de meteorologiske stationer.

Flyt musen over at se navnet på stationen.

Så klik over at se vejr observationer og prognoser.

At skifte det kort: Klik på de grønne knapper med et sort kors for at zoome ind; på den grønne knap med en bindestreg for at zoome ud; eller på de grønne pile for tilstødende kort.


METAR-TAF: